BME weather

Broome International Airport
Broome, Western Australia, Australia

Public forecast

Using degrees Celsius for public forecast. Weather courtesy of forecast.io.

METAR (pilot weather report)

Retrieved 2018/11/19 12:30 UTC (21 minutes ago):

YBRM 191230Z AUTO 33011KT 9999 // BKN018 OVC022 29/25 Q1007

TAF (pilot weather forecast)

Retrieved 2018/11/19 12:36 UTC (15 minutes ago):

TAF YBRM 191110Z 1912/2012 32014KT 9999 SCT016 FM191800 33008KT 9999 BKN015 FM200000 32016KT 9999 FEW020 FM201000 31010KT 9999 SCT014